createdAt,value
2017-07-06T00:00:03.140Z,9.20
2017-07-06T00:02:30.609Z,8.93
2017-07-06T00:04:58.031Z,8.93
2017-07-06T00:07:25.464Z,9.40
2017-07-06T00:09:52.869Z,10.00
2017-07-06T00:12:20.316Z,9.20
2017-07-06T00:14:47.720Z,7.70
2017-07-06T00:17:15.179Z,7.20
2017-07-06T00:19:42.656Z,7.97
2017-07-06T00:22:10.096Z,8.40
2017-07-06T00:24:37.504Z,7.47
2017-07-06T00:27:04.942Z,7.10
2017-07-06T00:29:32.352Z,8.90
2017-07-06T00:31:59.832Z,8.57
2017-07-06T00:34:27.304Z,8.77
2017-07-06T00:36:54.723Z,8.90
2017-07-06T00:39:22.172Z,8.37
2017-07-06T00:41:49.582Z,9.67
2017-07-06T00:44:16.985Z,7.83
2017-07-06T00:46:44.425Z,9.70
2017-07-06T00:49:11.853Z,9.00
2017-07-06T00:51:39.279Z,11.77
2017-07-06T00:54:07.315Z,8.00
2017-07-06T00:56:34.820Z,8.83
2017-07-06T00:59:02.288Z,8.13
2017-07-06T01:01:29.705Z,7.60
2017-07-06T01:03:57.153Z,8.30
2017-07-06T01:06:24.585Z,9.63
2017-07-06T01:08:52.765Z,8.93
2017-07-06T01:11:20.205Z,8.57
2017-07-06T01:13:47.656Z,8.60
2017-07-06T01:16:15.114Z,9.17
2017-07-06T01:18:42.512Z,9.10
2017-07-06T01:21:09.922Z,10.60
2017-07-06T01:23:37.384Z,9.00
2017-07-06T01:26:04.820Z,9.00
2017-07-06T01:28:32.238Z,8.10
2017-07-06T01:30:59.665Z,8.43
2017-07-06T01:33:27.079Z,8.17
2017-07-06T01:35:54.507Z,7.63
2017-07-06T01:38:21.948Z,7.50
2017-07-06T01:40:49.374Z,7.80
2017-07-06T01:43:17.657Z,9.60
2017-07-06T01:45:45.106Z,8.40
2017-07-06T01:48:12.542Z,9.03
2017-07-06T01:50:39.972Z,11.00
2017-07-06T01:53:07.375Z,8.83
2017-07-06T01:55:34.820Z,8.50
2017-07-06T01:58:02.304Z,10.27
2017-07-06T02:00:29.733Z,9.83
2017-07-06T02:02:57.177Z,8.10
2017-07-06T02:05:24.780Z,9.80
2017-07-06T02:07:52.183Z,9.13
2017-07-06T02:10:19.637Z,13.30
2017-07-06T02:12:47.076Z,10.03
2017-07-06T02:15:14.496Z,10.87
2017-07-06T02:17:41.977Z,10.20
2017-07-06T02:20:09.377Z,12.27
2017-07-06T02:22:36.820Z,8.60
2017-07-06T02:25:04.273Z,8.73
2017-07-06T02:27:31.697Z,10.60
2017-07-06T02:29:59.175Z,9.37
2017-07-06T02:32:26.627Z,9.90
2017-07-06T02:34:54.104Z,8.93
2017-07-06T02:37:21.519Z,9.33
2017-07-06T02:39:48.930Z,9.80
2017-07-06T02:42:17.171Z,12.73
2017-07-06T02:44:44.604Z,8.63
2017-07-06T02:47:12.044Z,8.60
2017-07-06T02:49:39.458Z,10.33
2017-07-06T02:52:07.040Z,9.00
2017-07-06T02:54:34.496Z,9.67
2017-07-06T02:57:01.920Z,8.63
2017-07-06T02:59:29.327Z,10.50
2017-07-06T03:01:56.800Z,10.77
2017-07-06T03:04:24.216Z,9.60
2017-07-06T03:06:51.655Z,8.93
2017-07-06T03:09:19.072Z,8.83
2017-07-06T03:11:46.524Z,10.07
2017-07-06T03:14:13.925Z,9.00
2017-07-06T03:16:41.341Z,9.33
2017-07-06T03:19:08.896Z,7.80
2017-07-06T03:21:36.304Z,8.50
2017-07-06T03:24:04.361Z,10.87
2017-07-06T03:26:31.756Z,9.23
2017-07-06T03:28:59.221Z,8.77
2017-07-06T03:31:26.649Z,8.90
2017-07-06T03:33:54.053Z,8.77
2017-07-06T03:36:21.456Z,9.20
2017-07-06T03:38:48.891Z,8.80
2017-07-06T03:41:16.325Z,9.33
2017-07-06T03:43:43.813Z,8.60
2017-07-06T03:46:11.237Z,9.67
2017-07-06T03:48:38.652Z,9.83
2017-07-06T03:51:06.094Z,9.77
2017-07-06T03:53:33.493Z,10.13
2017-07-06T03:56:00.943Z,9.00
2017-07-06T03:58:28.344Z,8.20
2017-07-06T04:00:55.937Z,9.53
2017-07-06T04:03:23.477Z,10.87
2017-07-06T04:05:50.965Z,8.43
2017-07-06T04:08:18.360Z,8.73
2017-07-06T04:10:45.766Z,9.33
2017-07-06T04:13:13.201Z,9.17
2017-07-06T04:15:40.611Z,9.40
2017-07-06T04:18:08.032Z,12.70
2017-07-06T04:20:35.546Z,18.23
2017-07-06T04:23:03.005Z,16.20
2017-07-06T04:25:30.464Z,14.80
2017-07-06T04:27:57.909Z,14.97
2017-07-06T04:30:25.396Z,14.47
2017-07-06T04:32:52.849Z,12.43
2017-07-06T04:35:20.278Z,13.77
2017-07-06T04:37:47.765Z,14.63
2017-07-06T04:40:15.188Z,16.87
2017-07-06T04:42:42.636Z,19.70
2017-07-06T04:45:10.044Z,21.80
2017-07-06T04:47:37.485Z,16.10
2017-07-06T04:50:04.923Z,14.90
2017-07-06T04:52:32.336Z,25.17
2017-07-06T04:54:59.784Z,13.00
2017-07-06T04:57:27.219Z,21.47
2017-07-06T04:59:54.664Z,12.90
2017-07-06T05:02:22.080Z,13.30
2017-07-06T05:04:49.579Z,13.27
2017-07-06T05:07:16.997Z,13.80
2017-07-06T05:09:44.426Z,12.00
2017-07-06T05:12:11.859Z,12.07
2017-07-06T05:14:39.301Z,13.20
2017-07-06T05:17:06.772Z,12.90
2017-07-06T05:19:34.197Z,13.67
2017-07-06T05:22:01.659Z,11.73
2017-07-06T05:24:29.109Z,12.93
2017-07-06T05:26:56.506Z,12.27
2017-07-06T05:29:23.940Z,10.63
2017-07-06T05:31:52.005Z,10.73
2017-07-06T05:34:19.505Z,14.10
2017-07-06T05:36:46.984Z,15.57
2017-07-06T05:39:14.403Z,18.03
2017-07-06T05:41:41.830Z,12.67
2017-07-06T05:44:09.288Z,14.17
2017-07-06T05:46:36.696Z,14.30
2017-07-06T05:49:04.169Z,15.00
2017-07-06T05:51:31.681Z,15.00
2017-07-06T05:53:59.284Z,13.30
2017-07-06T05:56:26.792Z,13.53
2017-07-06T05:58:54.276Z,16.10
2017-07-06T06:01:21.793Z,13.50
2017-07-06T06:03:49.283Z,12.07
2017-07-06T06:09:12.420Z,10.83
2017-07-06T06:11:39.825Z,10.73
2017-07-06T06:14:07.259Z,11.37
2017-07-06T06:16:34.711Z,14.27
2017-07-06T06:19:02.134Z,21.77
2017-07-06T06:21:29.596Z,12.17
2017-07-06T06:23:57.045Z,10.47
2017-07-06T06:26:24.459Z,17.00
2017-07-06T06:28:52.236Z,10.17
2017-07-06T06:31:19.694Z,11.17
2017-07-06T06:33:47.192Z,15.87
2017-07-06T06:36:14.789Z,10.57
2017-07-06T06:38:42.361Z,11.23
2017-07-06T06:41:09.776Z,9.30
2017-07-06T06:43:37.193Z,11.20
2017-07-06T06:46:04.625Z,9.87
2017-07-06T06:48:32.062Z,8.80
2017-07-06T06:50:59.483Z,9.70
2017-07-06T06:53:26.927Z,12.50
2017-07-06T06:55:54.364Z,14.47
2017-07-06T06:58:21.796Z,10.03
2017-07-06T07:00:49.267Z,11.30
2017-07-06T07:03:16.908Z,7.93
2017-07-06T07:05:44.349Z,12.00
2017-07-06T07:08:11.784Z,9.37
2017-07-06T07:10:39.195Z,8.70
2017-07-06T07:13:06.664Z,8.90
2017-07-06T07:15:34.117Z,8.23
2017-07-06T07:18:01.541Z,8.50
2017-07-06T07:20:28.977Z,8.90
2017-07-06T07:22:56.388Z,8.27
2017-07-06T07:25:23.802Z,8.10
2017-07-06T07:27:51.229Z,7.60
2017-07-06T07:30:18.671Z,8.80
2017-07-06T07:32:46.141Z,9.40
2017-07-06T07:35:13.581Z,9.70
2017-07-06T07:37:40.995Z,7.10
2017-07-06T07:40:08.456Z,8.30
2017-07-06T07:42:35.867Z,8.63
2017-07-06T07:45:03.303Z,7.00
2017-07-06T07:47:30.869Z,8.37
2017-07-06T07:49:58.434Z,7.20
2017-07-06T07:52:25.862Z,6.60
2017-07-06T07:54:53.300Z,10.20
2017-07-06T07:57:20.760Z,10.50
2017-07-06T07:59:48.183Z,7.00
2017-07-06T08:02:15.640Z,7.03
2017-07-06T08:04:43.075Z,6.70
2017-07-06T08:07:10.680Z,13.93
2017-07-06T08:09:38.173Z,7.70
2017-07-06T08:12:05.605Z,7.07
2017-07-06T08:14:33.032Z,8.40
2017-07-06T08:17:00.494Z,7.20
2017-07-06T08:19:27.913Z,6.77
2017-07-06T08:21:55.353Z,6.77
2017-07-06T08:24:22.753Z,8.03
2017-07-06T08:26:50.289Z,7.13
2017-07-06T08:29:17.849Z,6.80
2017-07-06T08:31:45.253Z,7.87
2017-07-06T08:34:12.671Z,6.20
2017-07-06T08:36:40.112Z,10.60
2017-07-06T08:39:07.540Z,10.30
2017-07-06T08:41:34.999Z,8.37
2017-07-06T08:44:02.410Z,7.27
2017-07-06T08:46:29.961Z,6.37
2017-07-06T08:48:57.397Z,11.70
2017-07-06T08:51:25.113Z,7.93
2017-07-06T08:53:52.548Z,6.83
2017-07-06T08:56:19.992Z,8.50
2017-07-06T08:58:47.401Z,7.17
2017-07-06T09:01:14.856Z,7.23
2017-07-06T09:03:42.272Z,7.47
2017-07-06T09:06:09.821Z,8.83
2017-07-06T09:08:37.351Z,7.53
2017-07-06T09:11:04.749Z,6.67
2017-07-06T09:13:32.182Z,6.30
2017-07-06T09:15:59.625Z,6.67
2017-07-06T09:18:27.064Z,6.50
2017-07-06T09:20:54.480Z,10.00
2017-07-06T09:23:21.928Z,7.03
2017-07-06T09:25:49.388Z,6.73
2017-07-06T09:28:16.802Z,5.87
2017-07-06T09:30:44.261Z,5.50
2017-07-06T09:33:11.695Z,5.60
2017-07-06T09:35:39.114Z,9.10
2017-07-06T09:38:06.564Z,5.57
2017-07-06T09:40:34.065Z,6.40
2017-07-06T09:43:01.467Z,6.07
2017-07-06T09:45:29.024Z,7.73
2017-07-06T09:47:56.475Z,12.97
2017-07-06T09:50:23.939Z,5.80
2017-07-06T09:52:51.371Z,8.80
2017-07-06T09:55:18.800Z,5.23
2017-07-06T09:57:46.229Z,5.50
2017-07-06T10:00:13.682Z,5.30
2017-07-06T10:02:41.109Z,5.80
2017-07-06T10:05:08.522Z,6.23
2017-07-06T10:07:35.993Z,6.87
2017-07-06T10:10:03.398Z,6.07
2017-07-06T10:12:30.827Z,6.07
2017-07-06T10:14:58.388Z,7.27
2017-07-06T10:17:25.812Z,4.97
2017-07-06T10:19:53.238Z,8.70
2017-07-06T10:22:21.215Z,12.47
2017-07-06T10:24:48.713Z,4.10
2017-07-06T10:27:16.156Z,4.70
2017-07-06T10:29:43.653Z,5.40
2017-07-06T10:32:11.059Z,6.50
2017-07-06T10:34:38.526Z,5.33
2017-07-06T10:37:05.957Z,5.60
2017-07-06T10:39:33.402Z,4.40
2017-07-06T10:42:00.855Z,4.80
2017-07-06T10:49:47.533Z,4.73
2017-07-06T10:52:14.981Z,3.47
2017-07-06T10:54:42.467Z,3.63
2017-07-06T10:57:09.906Z,6.57
2017-07-06T10:59:37.325Z,3.80
2017-07-06T11:02:04.857Z,5.80
2017-07-06T11:04:32.392Z,3.80
2017-07-06T11:06:59.832Z,4.40
2017-07-06T11:09:27.293Z,5.67
2017-07-06T11:11:54.715Z,3.90
2017-07-06T11:14:22.158Z,3.97
2017-07-06T11:16:49.582Z,4.83
2017-07-06T11:19:17.033Z,3.97
2017-07-06T11:21:44.443Z,4.60
2017-07-06T11:24:12.157Z,6.37
2017-07-06T11:26:39.633Z,8.40
2017-07-06T11:29:07.078Z,3.30
2017-07-06T11:31:34.578Z,4.07
2017-07-06T11:34:02.012Z,4.50
2017-07-06T11:36:29.500Z,11.13
2017-07-06T11:38:56.942Z,4.13
2017-07-06T11:41:24.404Z,4.07
2017-07-06T11:43:51.808Z,5.63
2017-07-06T11:46:19.283Z,3.40
2017-07-06T11:48:46.689Z,5.30
2017-07-06T11:51:14.995Z,4.20
2017-07-06T11:53:42.470Z,3.53
2017-07-06T11:56:10.167Z,3.10
2017-07-06T11:58:37.642Z,3.13
2017-07-06T12:01:05.085Z,3.00
2017-07-06T12:03:33.294Z,3.77
2017-07-06T12:06:00.765Z,3.10
2017-07-06T12:08:28.278Z,2.93
2017-07-06T12:10:55.797Z,3.13
2017-07-06T12:13:23.239Z,3.57
2017-07-06T12:15:50.652Z,3.40
2017-07-06T12:18:18.112Z,3.40
2017-07-06T12:20:45.561Z,3.60
2017-07-06T12:23:12.964Z,6.50
2017-07-06T12:25:40.405Z,4.33
2017-07-06T12:28:07.817Z,3.43
2017-07-06T12:30:35.257Z,7.93
2017-07-06T12:33:02.692Z,3.73
2017-07-06T12:35:30.128Z,4.60
2017-07-06T12:37:57.579Z,3.50
2017-07-06T12:40:25.045Z,4.07
2017-07-06T12:42:52.468Z,3.83
2017-07-06T12:45:19.906Z,3.60
2017-07-06T12:47:47.345Z,4.20
2017-07-06T12:50:14.756Z,4.57
2017-07-06T12:52:42.224Z,5.33
2017-07-06T12:55:09.665Z,3.53
2017-07-06T12:57:37.072Z,3.57
2017-07-06T13:00:04.525Z,5.07
2017-07-06T13:02:31.965Z,3.77
2017-07-06T13:04:59.448Z,4.50
2017-07-06T13:07:26.881Z,4.23
2017-07-06T13:09:54.348Z,4.07
2017-07-06T13:12:21.785Z,3.70
2017-07-06T13:14:49.300Z,7.13
2017-07-06T13:17:16.794Z,6.10
2017-07-06T13:19:44.230Z,6.00
2017-07-06T13:22:11.688Z,9.67
2017-07-06T13:24:39.118Z,8.10
2017-07-06T13:27:06.552Z,8.13
2017-07-06T13:29:34.002Z,5.80
2017-07-06T13:32:01.422Z,5.83
2017-07-06T13:34:29.825Z,7.87
2017-07-06T13:36:57.297Z,11.03
2017-07-06T13:39:24.745Z,10.13
2017-07-06T13:41:52.240Z,4.47
2017-07-06T13:44:19.637Z,3.80
2017-07-06T13:46:47.155Z,7.83
2017-07-06T13:49:14.580Z,4.93
2017-07-06T13:51:42.010Z,6.90
2017-07-06T13:54:09.486Z,7.03
2017-07-06T14:01:56.323Z,8.40
2017-07-06T14:04:24.232Z,15.00
2017-07-06T14:06:51.695Z,8.90
2017-07-06T14:09:19.107Z,6.60
2017-07-06T14:11:47.226Z,8.53
2017-07-06T14:14:14.691Z,11.27
2017-07-06T14:16:42.197Z,14.60
2017-07-06T14:19:09.794Z,9.87
2017-07-06T14:21:37.293Z,8.40
2017-07-06T14:24:04.706Z,10.57
2017-07-06T14:26:32.190Z,4.90
2017-07-06T14:28:59.628Z,6.87
2017-07-06T14:31:27.082Z,9.43
2017-07-06T14:33:54.546Z,6.33
2017-07-06T14:36:21.968Z,5.97
2017-07-06T14:38:49.434Z,6.00
2017-07-06T14:41:16.841Z,5.27
2017-07-06T14:43:44.264Z,5.70
2017-07-06T14:46:11.700Z,4.73
2017-07-06T14:48:39.134Z,5.80
2017-07-06T14:51:06.586Z,5.67
2017-07-06T14:53:34.127Z,5.60
2017-07-06T14:56:01.723Z,4.67
2017-07-06T14:58:29.171Z,4.70
2017-07-06T15:00:56.643Z,4.77
2017-07-06T15:03:24.159Z,5.63
2017-07-06T15:05:51.730Z,5.20
2017-07-06T15:08:19.234Z,6.30
2017-07-06T15:10:46.779Z,5.17
2017-07-06T15:13:14.197Z,6.53
2017-07-06T15:15:41.666Z,4.80
2017-07-06T15:18:09.153Z,7.60
2017-07-06T15:20:36.609Z,4.60
2017-07-06T15:23:04.065Z,5.33
2017-07-06T15:25:31.500Z,6.40
2017-07-06T15:27:58.910Z,4.90
2017-07-06T15:30:26.328Z,5.00
2017-07-06T15:32:53.757Z,6.30
2017-07-06T15:35:21.230Z,7.20
2017-07-06T15:37:48.747Z,5.77
2017-07-06T15:40:16.244Z,5.20
2017-07-06T15:42:43.705Z,4.60
2017-07-06T15:45:11.217Z,9.67
2017-07-06T15:47:38.680Z,5.57
2017-07-06T15:50:06.118Z,5.03
2017-07-06T15:52:33.528Z,5.30
2017-07-06T15:55:00.980Z,6.57
2017-07-06T15:57:28.404Z,8.47
2017-07-06T15:59:55.806Z,5.93
2017-07-06T16:02:23.267Z,5.70
2017-07-06T16:04:50.960Z,5.07
2017-07-06T16:07:18.405Z,5.03
2017-07-06T16:09:45.825Z,4.97
2017-07-06T16:12:13.274Z,5.13
2017-07-06T16:14:40.691Z,5.90
2017-07-06T16:17:08.095Z,6.00
2017-07-06T16:19:35.529Z,9.97
2017-07-06T16:24:36.928Z,13.80
2017-07-06T16:27:04.381Z,7.40
2017-07-06T16:29:31.885Z,9.30
2017-07-06T16:31:59.361Z,6.80
2017-07-06T16:34:26.802Z,7.23
2017-07-06T16:36:54.236Z,6.13
2017-07-06T16:39:21.686Z,8.23
2017-07-06T16:41:49.097Z,19.13
2017-07-06T16:44:16.512Z,9.50
2017-07-06T16:46:43.956Z,6.93
2017-07-06T16:49:11.376Z,4.50
2017-07-06T16:51:38.836Z,5.80
2017-07-06T16:54:06.240Z,7.37
2017-07-06T16:56:34.481Z,4.67
2017-07-06T16:59:01.933Z,4.87
2017-07-06T17:01:29.375Z,6.97
2017-07-06T17:03:56.836Z,5.43
2017-07-06T17:06:24.310Z,7.63
2017-07-06T17:08:52.692Z,4.30
2017-07-06T17:11:20.146Z,4.67
2017-07-06T17:13:47.559Z,5.63
2017-07-06T17:16:15.020Z,10.83
2017-07-06T17:18:42.473Z,9.70
2017-07-06T17:21:09.892Z,5.53
2017-07-06T17:23:37.429Z,6.40
2017-07-06T17:26:04.932Z,5.17
2017-07-06T17:28:32.347Z,6.47
2017-07-06T17:30:59.836Z,6.53
2017-07-06T17:33:27.279Z,7.03
2017-07-06T17:35:54.694Z,8.67
2017-07-06T17:38:22.124Z,10.90
2017-07-06T17:40:49.583Z,4.20
2017-07-06T17:43:16.993Z,4.50
2017-07-06T17:45:44.434Z,8.60
2017-07-06T17:48:11.864Z,7.00
2017-07-06T17:50:39.414Z,6.20
2017-07-06T17:53:06.872Z,8.27
2017-07-06T17:55:34.359Z,5.67
2017-07-06T17:58:01.832Z,5.00
2017-07-06T18:00:29.274Z,5.10
2017-07-06T18:02:56.749Z,4.80
2017-07-06T18:05:24.205Z,11.33
2017-07-06T18:07:51.634Z,5.43
2017-07-06T18:10:19.062Z,9.57
2017-07-06T18:12:46.525Z,9.33
2017-07-06T18:15:13.949Z,7.53
2017-07-06T18:17:41.385Z,6.00
2017-07-06T18:20:08.820Z,8.30
2017-07-06T18:22:36.341Z,4.93
2017-07-06T18:25:03.833Z,9.73
2017-07-06T18:27:31.302Z,14.87
2017-07-06T18:29:58.758Z,6.97
2017-07-06T18:32:26.216Z,10.33
2017-07-06T18:34:53.937Z,9.63
2017-07-06T18:37:21.375Z,10.83
2017-07-06T18:39:48.840Z,10.17
2017-07-06T18:42:16.263Z,6.80
2017-07-06T18:44:43.697Z,7.57
2017-07-06T18:47:11.149Z,9.40
2017-07-06T18:49:38.594Z,6.77
2017-07-06T18:52:05.998Z,13.90
2017-07-06T18:54:33.453Z,10.17
2017-07-06T18:57:00.872Z,6.83
2017-07-06T18:59:28.313Z,8.37
2017-07-06T19:01:55.771Z,11.50
2017-07-06T19:04:23.203Z,7.57
2017-07-06T19:06:50.659Z,12.60
2017-07-06T19:09:18.140Z,15.80
2017-07-06T19:11:45.581Z,7.40
2017-07-06T19:14:13.066Z,7.50
2017-07-06T19:16:40.489Z,11.60
2017-07-06T19:19:07.926Z,7.23
2017-07-06T19:21:35.374Z,5.70
2017-07-06T19:24:02.793Z,7.33
2017-07-06T19:26:30.224Z,5.43
2017-07-06T19:28:57.653Z,7.53
2017-07-06T19:31:25.097Z,9.20
2017-07-06T19:33:52.505Z,7.40
2017-07-06T19:36:19.981Z,5.87
2017-07-06T19:38:47.532Z,7.43
2017-07-06T19:41:14.998Z,7.10
2017-07-06T19:43:42.488Z,8.10
2017-07-06T19:46:09.885Z,8.40
2017-07-06T19:48:37.332Z,6.30
2017-07-06T19:51:04.750Z,8.33
2017-07-06T19:53:32.168Z,6.20
2017-07-06T19:55:59.958Z,6.53
2017-07-06T19:58:27.358Z,6.27
2017-07-06T20:00:54.858Z,9.10
2017-07-06T20:03:22.304Z,11.20
2017-07-06T20:05:49.772Z,7.40
2017-07-06T20:08:17.203Z,8.60
2017-07-06T20:10:44.621Z,9.03
2017-07-06T20:13:12.065Z,9.60
2017-07-06T20:15:39.485Z,9.30
2017-07-06T20:18:06.950Z,8.63
2017-07-06T20:20:34.373Z,6.80
2017-07-06T20:23:01.804Z,9.50
2017-07-06T20:25:29.265Z,6.60
2017-07-06T20:27:56.687Z,7.63
2017-07-06T20:30:24.086Z,9.43
2017-07-06T20:32:51.576Z,6.87
2017-07-06T20:35:19.048Z,7.97
2017-07-06T20:37:46.519Z,9.27
2017-07-06T20:40:13.965Z,9.03
2017-07-06T20:42:41.367Z,8.00
2017-07-06T20:45:08.831Z,10.23
2017-07-06T20:47:36.624Z,8.40
2017-07-06T20:50:04.069Z,10.70
2017-07-06T20:52:31.539Z,14.63
2017-07-06T20:55:00.198Z,14.07
2017-07-06T20:57:27.678Z,13.40
2017-07-06T20:59:55.088Z,11.80
2017-07-06T21:02:22.517Z,13.00
2017-07-06T21:04:49.978Z,15.53
2017-07-06T21:07:18.096Z,17.40
2017-07-06T21:09:45.612Z,13.70
2017-07-06T21:12:13.054Z,14.50
2017-07-06T21:14:40.499Z,13.67
2017-07-06T21:17:07.972Z,13.60
2017-07-06T21:19:35.395Z,12.27
2017-07-06T21:22:02.806Z,9.83
2017-07-06T21:24:30.287Z,8.30
2017-07-06T21:26:57.755Z,7.43
2017-07-06T21:29:25.258Z,7.67
2017-07-06T21:31:52.692Z,8.73
2017-07-06T21:34:20.139Z,10.63
2017-07-06T21:36:47.565Z,9.27
2017-07-06T21:39:14.995Z,7.87
2017-07-06T21:41:42.408Z,9.10
2017-07-06T21:44:09.812Z,7.80
2017-07-06T21:46:37.277Z,8.80
2017-07-06T21:49:04.695Z,10.17
2017-07-06T21:51:32.142Z,10.53
2017-07-06T21:53:59.548Z,8.03
2017-07-06T21:56:26.985Z,10.20
2017-07-06T21:58:54.434Z,8.10
2017-07-06T22:01:21.854Z,9.60
2017-07-06T22:03:49.289Z,7.40
2017-07-06T22:06:16.752Z,9.47
2017-07-06T22:08:44.157Z,7.73
2017-07-06T22:11:11.616Z,9.10
2017-07-06T22:13:39.025Z,8.47
2017-07-06T22:16:06.456Z,12.20
2017-07-06T22:18:33.896Z,11.13
2017-07-06T22:21:01.905Z,9.63
2017-07-06T22:23:29.481Z,10.17
2017-07-06T22:25:56.900Z,10.30
2017-07-06T22:28:24.332Z,7.83
2017-07-06T22:30:51.772Z,9.90
2017-07-06T22:33:19.209Z,8.00
2017-07-06T22:35:46.704Z,11.03
2017-07-06T22:38:14.125Z,30.43
2017-07-06T22:40:41.549Z,7.60
2017-07-06T22:43:09.036Z,8.53
2017-07-06T22:45:36.473Z,8.50
2017-07-06T22:48:03.936Z,8.10
2017-07-06T22:50:31.357Z,9.63
2017-07-06T22:52:58.789Z,7.80
2017-07-06T22:55:26.201Z,7.80
2017-07-06T22:57:53.642Z,9.87
2017-07-06T23:00:21.113Z,6.93
2017-07-06T23:02:48.515Z,7.27
2017-07-06T23:05:15.939Z,12.63
2017-07-06T23:07:43.365Z,6.93
2017-07-06T23:10:10.808Z,7.20
2017-07-06T23:12:38.240Z,11.13
2017-07-06T23:15:05.696Z,9.40
2017-07-06T23:17:33.126Z,7.63
2017-07-06T23:20:00.540Z,8.10
2017-07-06T23:22:27.994Z,11.03
2017-07-06T23:24:55.417Z,8.47
2017-07-06T23:27:22.844Z,10.30
2017-07-06T23:29:50.291Z,7.93
2017-07-06T23:32:17.845Z,8.50
2017-07-06T23:34:45.271Z,10.77
2017-07-06T23:37:12.705Z,9.17
2017-07-06T23:39:40.206Z,9.30
2017-07-06T23:42:07.616Z,10.23
2017-07-06T23:44:35.062Z,12.70
2017-07-06T23:47:02.462Z,9.30
2017-07-06T23:49:29.933Z,10.10
2017-07-06T23:51:57.357Z,9.13
2017-07-06T23:54:24.762Z,8.50
2017-07-06T23:56:52.220Z,10.70
2017-07-06T23:59:19.637Z,9.00
